sensor_id;sensor_type;location;lat;lon;timestamp;pressure;altitude;pressure_sealevel;temperature;humidity
72061;BME280;59925;52.136;5.420;2023-01-05T00:00:53;101743.28;;;9.49;88.71
72061;BME280;59925;52.136;5.420;2023-01-05T00:03:21;101743.28;;;9.49;88.45
72061;BME280;59925;52.136;5.420;2023-01-05T00:05:47;101735.72;;;9.46;88.14
72061;BME280;59925;52.136;5.420;2023-01-05T00:08:14;101734.69;;;9.47;88.30
72061;BME280;59925;52.136;5.420;2023-01-05T00:10:40;101739.22;;;9.47;88.21
72061;BME280;59925;52.136;5.420;2023-01-05T00:13:39;101749.03;;;9.41;88.28
72061;BME280;59925;52.136;5.420;2023-01-05T00:16:24;101754.97;;;9.43;88.37
72061;BME280;59925;52.136;5.420;2023-01-05T00:19:10;101744.88;;;9.33;88.42
72061;BME280;59925;52.136;5.420;2023-01-05T00:21:56;101744.63;;;9.35;88.10
72061;BME280;59925;52.136;5.420;2023-01-05T00:24:41;101747.44;;;9.28;88.14
72061;BME280;59925;52.136;5.420;2023-01-05T00:27:08;101736.19;;;9.26;88.04
72061;BME280;59925;52.136;5.420;2023-01-05T00:29:34;101743.72;;;9.29;88.36
72061;BME280;59925;52.136;5.420;2023-01-05T00:32:01;101743.63;;;9.24;88.11
72061;BME280;59925;52.136;5.420;2023-01-05T00:34:27;101736.66;;;9.23;88.34
72061;BME280;59925;52.136;5.420;2023-01-05T00:36:54;101742.22;;;9.22;88.34
72061;BME280;59925;52.136;5.420;2023-01-05T00:39:20;101741.28;;;9.28;87.90
72061;BME280;59925;52.136;5.420;2023-01-05T00:41:47;101737.44;;;9.24;87.84
72061;BME280;59925;52.136;5.420;2023-01-05T00:44:13;101752.72;;;9.23;87.87
72061;BME280;59925;52.136;5.420;2023-01-05T00:46:40;101750.38;;;9.27;87.91
72061;BME280;59925;52.136;5.420;2023-01-05T00:49:06;101756.75;;;9.26;87.66
72061;BME280;59925;52.136;5.420;2023-01-05T00:51:33;101758.50;;;9.32;87.91
72061;BME280;59925;52.136;5.420;2023-01-05T00:53:59;101756.03;;;9.30;87.95
72061;BME280;59925;52.136;5.420;2023-01-05T00:56:26;101760.28;;;9.26;88.03
72061;BME280;59925;52.136;5.420;2023-01-05T00:58:52;101764.06;;;9.30;87.61
72061;BME280;59925;52.136;5.420;2023-01-05T01:01:20;101763.13;;;9.37;87.53
72061;BME280;59925;52.136;5.420;2023-01-05T01:03:47;101772.88;;;9.43;87.61
72061;BME280;59925;52.136;5.420;2023-01-05T01:06:14;101790.34;;;9.45;87.62
72061;BME280;59925;52.136;5.420;2023-01-05T01:08:41;101774.03;;;9.47;87.12
72061;BME280;59925;52.136;5.420;2023-01-05T01:11:08;101786.84;;;9.45;87.26
72061;BME280;59925;52.136;5.420;2023-01-05T01:13:35;101767.63;;;9.48;87.30
72061;BME280;59925;52.136;5.420;2023-01-05T01:16:08;101778.34;;;9.48;87.21
72061;BME280;59925;52.136;5.420;2023-01-05T01:18:34;101775.66;;;9.48;87.56
72061;BME280;59925;52.136;5.420;2023-01-05T01:21:01;101774.59;;;9.49;87.23
72061;BME280;59925;52.136;5.420;2023-01-05T01:23:27;101778.00;;;9.44;87.25
72061;BME280;59925;52.136;5.420;2023-01-05T01:25:54;101797.78;;;9.43;87.68
72061;BME280;59925;52.136;5.420;2023-01-05T01:28:24;101792.44;;;9.43;87.22
72061;BME280;59925;52.136;5.420;2023-01-05T01:30:51;101801.25;;;9.44;87.26
72061;BME280;59925;52.136;5.420;2023-01-05T01:33:17;101797.88;;;9.48;87.19
72061;BME280;59925;52.136;5.420;2023-01-05T01:35:44;101788.06;;;9.54;86.87
72061;BME280;59925;52.136;5.420;2023-01-05T01:38:10;101814.38;;;9.57;86.73
72061;BME280;59925;52.136;5.420;2023-01-05T01:40:42;101796.22;;;9.59;86.67
72061;BME280;59925;52.136;5.420;2023-01-05T01:43:19;101796.78;;;9.61;86.38
72061;BME280;59925;52.136;5.420;2023-01-05T01:45:46;101813.06;;;9.60;86.72
72061;BME280;59925;52.136;5.420;2023-01-05T01:48:15;101805.41;;;9.63;86.51
72061;BME280;59925;52.136;5.420;2023-01-05T01:50:46;101799.94;;;9.58;86.94
72061;BME280;59925;52.136;5.420;2023-01-05T01:53:21;101803.44;;;9.59;87.04
72061;BME280;59925;52.136;5.420;2023-01-05T01:55:51;101809.59;;;9.59;87.01
72061;BME280;59925;52.136;5.420;2023-01-05T01:58:20;101815.75;;;9.60;87.27
72061;BME280;59925;52.136;5.420;2023-01-05T02:00:51;101815.53;;;9.61;87.02
72061;BME280;59925;52.136;5.420;2023-01-05T02:03:18;101821.94;;;9.60;86.91
72061;BME280;59925;52.136;5.420;2023-01-05T02:05:45;101822.97;;;9.59;87.35
72061;BME280;59925;52.136;5.420;2023-01-05T02:08:13;101823.56;;;9.61;87.38
72061;BME280;59925;52.136;5.420;2023-01-05T02:16:26;101837.41;;;9.58;87.78
72061;BME280;59925;52.136;5.420;2023-01-05T02:19:22;101827.88;;;9.62;87.90
72061;BME280;59925;52.136;5.420;2023-01-05T02:33:54;101833.69;;;9.59;87.98
72061;BME280;59925;52.136;5.420;2023-01-05T02:39:33;101834.28;;;9.61;88.22
72061;BME280;59925;52.136;5.420;2023-01-05T02:42:10;101824.47;;;9.67;88.57
72061;BME280;59925;52.136;5.420;2023-01-05T02:44:38;101841.91;;;9.70;88.25
72061;BME280;59925;52.136;5.420;2023-01-05T02:49:51;101840.53;;;9.67;88.65
72061;BME280;59925;52.136;5.420;2023-01-05T02:52:21;101844.00;;;9.68;88.51
72061;BME280;59925;52.136;5.420;2023-01-05T02:54:51;101851.81;;;9.69;88.65
72061;BME280;59925;52.136;5.420;2023-01-05T02:57:23;101845.06;;;9.66;88.84
72061;BME280;59925;52.136;5.420;2023-01-05T03:00:16;101855.78;;;9.66;88.80
72061;BME280;59925;52.136;5.420;2023-01-05T03:02:44;101850.41;;;9.66;88.86
72061;BME280;59925;52.136;5.420;2023-01-05T03:05:34;101847.28;;;9.70;88.62
72061;BME280;59925;52.136;5.420;2023-01-05T03:08:03;101855.31;;;9.70;88.78
72061;BME280;59925;52.136;5.420;2023-01-05T03:10:40;101851.56;;;9.71;88.54
72061;BME280;59925;52.136;5.420;2023-01-05T03:13:31;101852.63;;;9.70;88.53
72061;BME280;59925;52.136;5.420;2023-01-05T03:16:12;101850.78;;;9.70;88.45
72061;BME280;59925;52.136;5.420;2023-01-05T03:18:40;101845.41;;;9.70;88.22
72061;BME280;59925;52.136;5.420;2023-01-05T03:21:25;101846.69;;;9.68;88.48
72061;BME280;59925;52.136;5.420;2023-01-05T03:23:53;101839.69;;;9.66;88.67
72061;BME280;59925;52.136;5.420;2023-01-05T03:26:40;101853.19;;;9.72;88.06
72061;BME280;59925;52.136;5.420;2023-01-05T03:29:26;101843.53;;;9.71;88.25
72061;BME280;59925;52.136;5.420;2023-01-05T03:32:18;101853.44;;;9.70;88.29
72061;BME280;59925;52.136;5.420;2023-01-05T03:35:16;101852.03;;;9.68;88.05
72061;BME280;59925;52.136;5.420;2023-01-05T03:38:06;101856.34;;;9.69;88.43
72061;BME280;59925;52.136;5.420;2023-01-05T03:40:43;101861.25;;;9.72;88.10
72061;BME280;59925;52.136;5.420;2023-01-05T03:43:11;101859.59;;;9.71;88.03
72061;BME280;59925;52.136;5.420;2023-01-05T03:45:41;101859.28;;;9.67;88.36
72061;BME280;59925;52.136;5.420;2023-01-05T03:48:08;101853.34;;;9.65;88.11
72061;BME280;59925;52.136;5.420;2023-01-05T03:50:35;101851.50;;;9.65;88.68
72061;BME280;59925;52.136;5.420;2023-01-05T03:53:03;101848.22;;;9.63;88.29
72061;BME280;59925;52.136;5.420;2023-01-05T03:55:29;101853.59;;;9.63;88.32
72061;BME280;59925;52.136;5.420;2023-01-05T03:57:56;101851.38;;;9.60;88.44
72061;BME280;59925;52.136;5.420;2023-01-05T04:00:22;101853.72;;;9.57;88.70
72061;BME280;59925;52.136;5.420;2023-01-05T04:02:51;101860.47;;;9.59;88.69
72061;BME280;59925;52.136;5.420;2023-01-05T04:05:18;101862.88;;;9.61;88.75
72061;BME280;59925;52.136;5.420;2023-01-05T04:07:44;101871.97;;;9.60;88.56
72061;BME280;59925;52.136;5.420;2023-01-05T04:10:11;101856.16;;;9.58;88.88
72061;BME280;59925;52.136;5.420;2023-01-05T04:12:37;101863.38;;;9.58;89.20
72061;BME280;59925;52.136;5.420;2023-01-05T04:15:05;101852.91;;;9.56;88.94
72061;BME280;59925;52.136;5.420;2023-01-05T04:17:31;101863.38;;;9.58;88.88
72061;BME280;59925;52.136;5.420;2023-01-05T04:19:58;101868.16;;;9.56;88.97
72061;BME280;59925;52.136;5.420;2023-01-05T04:22:24;101867.13;;;9.57;89.34
72061;BME280;59925;52.136;5.420;2023-01-05T04:24:53;101859.31;;;9.55;89.29
72061;BME280;59925;52.136;5.420;2023-01-05T04:27:19;101869.22;;;9.55;89.51
72061;BME280;59925;52.136;5.420;2023-01-05T04:29:46;101865.47;;;9.56;89.17
72061;BME280;59925;52.136;5.420;2023-01-05T04:32:12;101870.84;;;9.56;89.32
72061;BME280;59925;52.136;5.420;2023-01-05T04:34:39;101862.22;;;9.54;89.18
72061;BME280;59925;52.136;5.420;2023-01-05T04:37:05;101863.03;;;9.54;89.55
72061;BME280;59925;52.136;5.420;2023-01-05T04:39:32;101873.72;;;9.54;89.22
72061;BME280;59925;52.136;5.420;2023-01-05T04:41:58;101874.91;;;9.58;89.36
72061;BME280;59925;52.136;5.420;2023-01-05T04:44:25;101879.09;;;9.54;89.22
72061;BME280;59925;52.136;5.420;2023-01-05T04:46:51;101879.91;;;9.55;89.11
72061;BME280;59925;52.136;5.420;2023-01-05T04:49:18;101879.44;;;9.58;88.97
72061;BME280;59925;52.136;5.420;2023-01-05T04:51:45;101881.88;;;9.59;88.88
72061;BME280;59925;52.136;5.420;2023-01-05T04:54:11;101884.81;;;9.58;89.04
72061;BME280;59925;52.136;5.420;2023-01-05T04:56:38;101881.53;;;9.56;89.18
72061;BME280;59925;52.136;5.420;2023-01-05T04:59:04;101882.81;;;9.53;89.07
72061;BME280;59925;52.136;5.420;2023-01-05T05:01:31;101894.34;;;9.54;89.08
72061;BME280;59925;52.136;5.420;2023-01-05T05:03:58;101885.28;;;9.55;89.17
72061;BME280;59925;52.136;5.420;2023-01-05T05:06:24;101897.34;;;9.57;89.09
72061;BME280;59925;52.136;5.420;2023-01-05T05:08:51;101895.16;;;9.54;89.04
72061;BME280;59925;52.136;5.420;2023-01-05T05:11:17;101883.31;;;9.50;89.17
72061;BME280;59925;52.136;5.420;2023-01-05T05:13:44;101900.75;;;9.53;89.05
72061;BME280;59925;52.136;5.420;2023-01-05T05:16:10;101902.63;;;9.52;89.40
72061;BME280;59925;52.136;5.420;2023-01-05T05:18:37;101898.31;;;9.51;89.11
72061;BME280;59925;52.136;5.420;2023-01-05T05:21:04;101908.44;;;9.49;89.50
72061;BME280;59925;52.136;5.420;2023-01-05T05:23:30;101911.13;;;9.49;89.33
72061;BME280;59925;52.136;5.420;2023-01-05T05:25:57;101912.97;;;9.48;89.54
72061;BME280;59925;52.136;5.420;2023-01-05T05:28:23;101913.22;;;9.47;89.69
72061;BME280;59925;52.136;5.420;2023-01-05T05:30:54;101917.19;;;9.44;89.41
72061;BME280;59925;52.136;5.420;2023-01-05T05:33:23;101927.06;;;9.44;89.78
72061;BME280;59925;52.136;5.420;2023-01-05T05:35:50;101927.66;;;9.46;89.83
72061;BME280;59925;52.136;5.420;2023-01-05T05:38:16;101927.66;;;9.46;89.84
72061;BME280;59925;52.136;5.420;2023-01-05T05:40:43;101932.19;;;9.45;89.78
72061;BME280;59925;52.136;5.420;2023-01-05T05:43:09;101941.03;;;9.46;90.16
72061;BME280;59925;52.136;5.420;2023-01-05T05:45:36;101943.47;;;9.47;90.01
72061;BME280;59925;52.136;5.420;2023-01-05T05:48:02;101950.69;;;9.47;90.09
72061;BME280;59925;52.136;5.420;2023-01-05T05:50:29;101952.78;;;9.45;89.88
72061;BME280;59925;52.136;5.420;2023-01-05T05:52:55;101950.94;;;9.45;90.19
72061;BME280;59925;52.136;5.420;2023-01-05T05:55:22;101956.28;;;9.45;90.24
72061;BME280;59925;52.136;5.420;2023-01-05T05:57:48;101954.88;;;9.43;90.26
72061;BME280;59925;52.136;5.420;2023-01-05T06:00:15;101961.84;;;9.44;89.96
72061;BME280;59925;52.136;5.420;2023-01-05T06:02:42;101967.00;;;9.45;89.83
72061;BME280;59925;52.136;5.420;2023-01-05T06:05:08;101971.75;;;9.43;90.14
72061;BME280;59925;52.136;5.420;2023-01-05T06:07:35;101975.69;;;9.41;90.35
72061;BME280;59925;52.136;5.420;2023-01-05T06:10:01;101976.28;;;9.43;90.47
72061;BME280;59925;52.136;5.420;2023-01-05T06:12:28;101976.28;;;9.43;90.18
72061;BME280;59925;52.136;5.420;2023-01-05T06:14:55;101984.31;;;9.43;90.36
72061;BME280;59925;52.136;5.420;2023-01-05T06:17:21;101978.75;;;9.44;90.38
72061;BME280;59925;52.136;5.420;2023-01-05T06:19:48;101983.59;;;9.47;90.28
72061;BME280;59925;52.136;5.420;2023-01-05T06:22:14;101983.59;;;9.47;90.42
72061;BME280;59925;52.136;5.420;2023-01-05T06:24:41;101989.22;;;9.46;90.36
72061;BME280;59925;52.136;5.420;2023-01-05T06:27:07;101992.69;;;9.46;90.41
72061;BME280;59925;52.136;5.420;2023-01-05T06:29:34;101990.84;;;9.47;90.34
72061;BME280;59925;52.136;5.420;2023-01-05T06:32:00;101997.00;;;9.47;90.37
72061;BME280;59925;52.136;5.420;2023-01-05T06:34:27;101998.63;;;9.48;90.52
72061;BME280;59925;52.136;5.420;2023-01-05T06:36:53;102000.25;;;9.49;90.40
72061;BME280;59925;52.136;5.420;2023-01-05T06:39:27;102014.22;;;9.51;90.58
72061;BME280;59925;52.136;5.420;2023-01-05T06:41:54;102024.13;;;9.51;90.47
72061;BME280;59925;52.136;5.420;2023-01-05T06:44:20;102013.66;;;9.49;90.65
72061;BME280;59925;52.136;5.420;2023-01-05T06:46:47;102011.78;;;9.50;90.41
72061;BME280;59925;52.136;5.420;2023-01-05T06:49:13;102022.00;;;9.53;90.47
72061;BME280;59925;52.136;5.420;2023-01-05T06:51:40;102032.25;;;9.56;90.36
72061;BME280;59925;52.136;5.420;2023-01-05T06:54:06;102020.97;;;9.54;90.37
72061;BME280;59925;52.136;5.420;2023-01-05T06:56:33;102017.50;;;9.54;90.35
72061;BME280;59925;52.136;5.420;2023-01-05T06:58:59;102018.28;;;9.54;90.34
72061;BME280;59925;52.136;5.420;2023-01-05T07:01:26;102019.94;;;9.55;90.08
72061;BME280;59925;52.136;5.420;2023-01-05T07:03:53;102025.28;;;9.55;90.20
72061;BME280;59925;52.136;5.420;2023-01-05T07:06:19;102029.38;;;9.58;90.14
72061;BME280;59925;52.136;5.420;2023-01-05T07:08:46;102032.84;;;9.58;90.06
72061;BME280;59925;52.136;5.420;2023-01-05T07:11:12;102032.25;;;9.56;89.83
72061;BME280;59925;52.136;5.420;2023-01-05T07:13:46;102033.31;;;9.55;90.14
72061;BME280;59925;52.136;5.420;2023-01-05T07:16:12;102040.88;;;9.58;89.93
72061;BME280;59925;52.136;5.420;2023-01-05T07:18:39;102039.50;;;9.56;89.90
72061;BME280;59925;52.136;5.420;2023-01-05T07:21:06;102044.25;;;9.54;89.93
72061;BME280;59925;52.136;5.420;2023-01-05T07:23:33;102044.00;;;9.55;89.65
72061;BME280;59925;52.136;5.420;2023-01-05T07:26:04;102053.78;;;9.49;89.69
72061;BME280;59925;52.136;5.420;2023-01-05T07:28:31;102053.34;;;9.53;89.84
72061;BME280;59925;52.136;5.420;2023-01-05T07:30:58;102061.63;;;9.51;89.92
72061;BME280;59925;52.136;5.420;2023-01-05T07:33:25;102049.28;;;9.50;89.87
72061;BME280;59925;52.136;5.420;2023-01-05T07:35:51;102059.97;;;9.50;89.62
72061;BME280;59925;52.136;5.420;2023-01-05T07:38:18;102061.03;;;9.49;89.78
72061;BME280;59925;52.136;5.420;2023-01-05T07:40:45;102061.25;;;9.47;89.58
72061;BME280;59925;52.136;5.420;2023-01-05T07:43:11;102054.25;;;9.46;89.50
72061;BME280;59925;52.136;5.420;2023-01-05T07:45:38;102066.84;;;9.46;89.66
72061;BME280;59925;52.136;5.420;2023-01-05T07:48:05;102060.88;;;9.44;89.64
72061;BME280;59925;52.136;5.420;2023-01-05T07:50:31;102069.97;;;9.43;89.56
72061;BME280;59925;52.136;5.420;2023-01-05T07:52:58;102062.97;;;9.42;89.92
72061;BME280;59925;52.136;5.420;2023-01-05T07:55:25;102067.53;;;9.41;89.84
72061;BME280;59925;52.136;5.420;2023-01-05T07:57:54;102068.56;;;9.40;89.59
72061;BME280;59925;52.136;5.420;2023-01-05T08:00:22;102068.81;;;9.39;89.26
72061;BME280;59925;52.136;5.420;2023-01-05T08:02:48;102074.63;;;9.35;89.72
72061;BME280;59925;52.136;5.420;2023-01-05T08:05:15;102073.78;;;9.35;89.94
72061;BME280;59925;52.136;5.420;2023-01-05T08:07:52;102082.66;;;9.35;89.92
72061;BME280;59925;52.136;5.420;2023-01-05T08:10:18;102088.59;;;9.38;89.65
72061;BME280;59925;52.136;5.420;2023-01-05T08:13:05;102093.47;;;9.41;89.99
72061;BME280;59925;52.136;5.420;2023-01-05T08:15:51;102091.38;;;9.43;89.72
72061;BME280;59925;52.136;5.420;2023-01-05T08:18:22;102088.94;;;9.41;89.50
72061;BME280;59925;52.136;5.420;2023-01-05T08:20:53;102100.94;;;9.39;89.33
72061;BME280;59925;52.136;5.420;2023-01-05T08:23:21;102093.94;;;9.38;89.44
72061;BME280;59925;52.136;5.420;2023-01-05T08:25:52;102103.03;;;9.37;89.31
72061;BME280;59925;52.136;5.420;2023-01-05T08:28:19;102104.88;;;9.36;89.35
72061;BME280;59925;52.136;5.420;2023-01-05T08:30:45;102109.41;;;9.35;89.45
72061;BME280;59925;52.136;5.420;2023-01-05T08:33:13;102119.06;;;9.37;89.39
72061;BME280;59925;52.136;5.420;2023-01-05T08:35:43;102127.09;;;9.37;89.16
72061;BME280;59925;52.136;5.420;2023-01-05T08:38:10;102130.38;;;9.39;89.70
72061;BME280;59925;52.136;5.420;2023-01-05T08:40:37;102126.88;;;9.38;89.51
72061;BME280;59925;52.136;5.420;2023-01-05T08:43:05;102127.69;;;9.39;89.80
72061;BME280;59925;52.136;5.420;2023-01-05T08:45:32;102122.91;;;9.41;89.65
72061;BME280;59925;52.136;5.420;2023-01-05T08:48:00;102135.84;;;9.44;89.58
72061;BME280;59925;52.136;5.420;2023-01-05T08:50:27;102140.75;;;9.47;89.31
72061;BME280;59925;52.136;5.420;2023-01-05T08:52:53;102146.91;;;9.47;89.23
72061;BME280;59925;52.136;5.420;2023-01-05T08:55:20;102150.41;;;9.48;89.10
72061;BME280;59925;52.136;5.420;2023-01-05T08:57:46;102156.81;;;9.47;89.27
72061;BME280;59925;52.136;5.420;2023-01-05T09:00:13;102163.78;;;9.48;89.30
72061;BME280;59925;52.136;5.420;2023-01-05T09:02:43;102161.47;;;9.51;89.20
72061;BME280;59925;52.136;5.420;2023-01-05T09:05:10;102167.66;;;9.52;89.12
72061;BME280;59925;52.136;5.420;2023-01-05T09:07:36;102162.28;;;9.52;89.13
72061;BME280;59925;52.136;5.420;2023-01-05T09:10:04;102167.66;;;9.52;88.73
72061;BME280;59925;52.136;5.420;2023-01-05T09:12:33;102175.44;;;9.54;89.13
72061;BME280;59925;52.136;5.420;2023-01-05T09:15:01;102177.88;;;9.55;89.09
72061;BME280;59925;52.136;5.420;2023-01-05T09:17:28;102175.00;;;9.57;89.44
72061;BME280;59925;52.136;5.420;2023-01-05T09:19:55;102177.66;;;9.57;89.40
72061;BME280;59925;52.136;5.420;2023-01-05T09:22:22;102174.75;;;9.58;89.42
72061;BME280;59925;52.136;5.420;2023-01-05T09:24:48;102171.03;;;9.59;89.29
72061;BME280;59925;52.136;5.420;2023-01-05T09:27:15;102185.00;;;9.61;89.21
72061;BME280;59925;52.136;5.420;2023-01-05T09:29:41;102179.19;;;9.64;89.06
72061;BME280;59925;52.136;5.420;2023-01-05T09:32:08;102183.03;;;9.69;89.11
72061;BME280;59925;52.136;5.420;2023-01-05T09:34:36;102188.16;;;9.70;89.02
72061;BME280;59925;52.136;5.420;2023-01-05T09:37:03;102200.03;;;9.74;88.74
72061;BME280;59925;52.136;5.420;2023-01-05T09:39:29;102197.34;;;9.74;88.70
72061;BME280;59925;52.136;5.420;2023-01-05T09:42:00;102202.25;;;9.77;88.99
72061;BME280;59925;52.136;5.420;2023-01-05T09:47:11;102215.78;;;9.82;88.80
72061;BME280;59925;52.136;5.420;2023-01-05T09:49:39;102210.19;;;9.84;88.84
72061;BME280;59925;52.136;5.420;2023-01-05T09:52:08;102212.66;;;9.86;88.54
72061;BME280;59925;52.136;5.420;2023-01-05T09:54:37;102207.06;;;9.87;88.52
72061;BME280;59925;52.136;5.420;2023-01-05T09:57:11;102211.38;;;9.88;88.16
72061;BME280;59925;52.136;5.420;2023-01-05T09:59:44;102212.56;;;9.92;88.52
72061;BME280;59925;52.136;5.420;2023-01-05T10:04:58;102213.50;;;9.98;88.19
72061;BME280;59925;52.136;5.420;2023-01-05T10:07:36;102219.06;;;9.96;87.87
72061;BME280;59925;52.136;5.420;2023-01-05T10:10:12;102208.94;;;9.99;87.98
72061;BME280;59925;52.136;5.420;2023-01-05T10:12:46;102222.91;;;10.01;87.75
72061;BME280;59925;52.136;5.420;2023-01-05T10:15:36;102211.97;;;10.02;87.73
72061;BME280;59925;52.136;5.420;2023-01-05T10:18:10;102213.38;;;10.05;87.83
72061;BME280;59925;52.136;5.420;2023-01-05T10:26:26;102221.88;;;10.13;87.18
72061;BME280;59925;52.136;5.420;2023-01-05T10:29:20;102219.56;;;10.17;87.38
72061;BME280;59925;52.136;5.420;2023-01-05T10:32:01;102225.25;;;10.21;87.62
72061;BME280;59925;52.136;5.420;2023-01-05T10:40:02;102244.22;;;10.19;86.77
72061;BME280;59925;52.136;5.420;2023-01-05T10:45:21;102244.22;;;10.19;86.88
72061;BME280;59925;52.136;5.420;2023-01-05T10:47:50;102237.03;;;10.20;86.87
72061;BME280;59925;52.136;5.420;2023-01-05T10:52:53;102234.94;;;10.22;86.99
72061;BME280;59925;52.136;5.420;2023-01-05T10:55:20;102231.22;;;10.23;86.70
72061;BME280;59925;52.136;5.420;2023-01-05T10:57:48;102231.56;;;10.26;86.44
72061;BME280;59925;52.136;5.420;2023-01-05T11:00:15;102239.13;;;10.30;86.66
72061;BME280;59925;52.136;5.420;2023-01-05T11:02:52;102235.41;;;10.31;86.35
72061;BME280;59925;52.136;5.420;2023-01-05T11:05:27;102236.34;;;10.36;86.32
72061;BME280;59925;52.136;5.420;2023-01-05T11:07:57;102237.75;;;10.39;86.47
72061;BME280;59925;52.136;5.420;2023-01-05T11:11:19;102238.34;;;10.41;86.08
72061;BME280;59925;52.136;5.420;2023-01-05T11:15:43;102230.41;;;10.46;86.02
72061;BME280;59925;52.136;5.420;2023-01-05T11:18:23;102231.22;;;10.47;85.64
72061;BME280;59925;52.136;5.420;2023-01-05T11:21:16;102235.88;;;10.51;86.01
72061;BME280;59925;52.136;5.420;2023-01-05T11:23:47;102239.63;;;10.50;85.20
72061;BME280;59925;52.136;5.420;2023-01-05T11:28:58;102233.31;;;10.56;85.95
72061;BME280;59925;52.136;5.420;2023-01-05T11:31:26;102235.06;;;10.63;85.85
72061;BME280;59925;52.136;5.420;2023-01-05T11:33:58;102235.97;;;10.68;85.55
72061;BME280;59925;52.136;5.420;2023-01-05T11:36:26;102241.78;;;10.77;85.69
72061;BME280;59925;52.136;5.420;2023-01-05T11:38:53;102238.19;;;10.83;85.32
72061;BME280;59925;52.136;5.420;2023-01-05T11:41:21;102234.88;;;10.93;85.64
72061;BME280;59925;52.136;5.420;2023-01-05T11:43:50;102237.41;;;11.00;85.31
72061;BME280;59925;52.136;5.420;2023-01-05T11:46:18;102234.97;;;11.10;83.98
72061;BME280;59925;52.136;5.420;2023-01-05T11:48:53;102226.00;;;11.04;83.75
72061;BME280;59925;52.136;5.420;2023-01-05T11:51:35;102225.94;;;11.16;83.37
72061;BME280;59925;52.136;5.420;2023-01-05T11:54:02;102217.53;;;11.25;83.50
72061;BME280;59925;52.136;5.420;2023-01-05T11:56:29;102224.56;;;11.43;83.32
72061;BME280;59925;52.136;5.420;2023-01-05T11:58:56;102218.94;;;11.44;82.25
72061;BME280;59925;52.136;5.420;2023-01-05T12:01:51;102214.78;;;11.37;82.32
72061;BME280;59925;52.136;5.420;2023-01-05T12:04:31;102214.78;;;11.37;81.52
72061;BME280;59925;52.136;5.420;2023-01-05T12:07:05;102217.53;;;11.25;81.51
72061;BME280;59925;52.136;5.420;2023-01-05T12:09:53;102221.41;;;11.17;82.19
72061;BME280;59925;52.136;5.420;2023-01-05T12:13:03;102220.75;;;11.27;82.86
72061;BME280;59925;52.136;5.420;2023-01-05T12:21:23;102226.13;;;11.27;82.74
72061;BME280;59925;52.136;5.420;2023-01-05T12:23:58;102223.13;;;11.23;82.74
72061;BME280;59925;52.136;5.420;2023-01-05T12:32:34;102209.47;;;11.25;82.44
72061;BME280;59925;52.136;5.420;2023-01-05T12:41:23;102206.38;;;11.04;82.40
72061;BME280;59925;52.136;5.420;2023-01-05T12:46:59;102211.56;;;10.94;82.01
72061;BME280;59925;52.136;5.420;2023-01-05T12:49:50;102216.34;;;10.92;82.14
72061;BME280;59925;52.136;5.420;2023-01-05T12:52:29;102217.38;;;10.91;82.39
72061;BME280;59925;52.136;5.420;2023-01-05T12:55:10;102208.69;;;10.83;82.36
72061;BME280;59925;52.136;5.420;2023-01-05T12:57:42;102206.94;;;10.77;82.68
72061;BME280;59925;52.136;5.420;2023-01-05T13:00:16;102216.50;;;10.73;82.35
72061;BME280;59925;52.136;5.420;2023-01-05T13:02:59;102224.19;;;10.69;82.65
72061;BME280;59925;52.136;5.420;2023-01-05T13:08:43;102221.44;;;10.64;82.75
72061;BME280;59925;52.136;5.420;2023-01-05T13:14:02;102212.41;;;10.70;83.10
72061;BME280;59925;52.136;5.420;2023-01-05T13:16:36;102216.97;;;10.70;83.19
72061;BME280;59925;52.136;5.420;2023-01-05T13:19:09;102226.88;;;10.69;83.27
72061;BME280;59925;52.136;5.420;2023-01-05T13:21:40;102214.75;;;10.67;83.55
72061;BME280;59925;52.136;5.420;2023-01-05T13:24:22;102207.78;;;10.66;83.40
72061;BME280;59925;52.136;5.420;2023-01-05T13:26:53;102214.97;;;10.65;83.44
72061;BME280;59925;52.136;5.420;2023-01-05T13:29:23;102226.53;;;10.66;83.37
72061;BME280;59925;52.136;5.420;2023-01-05T13:32:03;102219.28;;;10.66;83.19
72061;BME280;59925;52.136;5.420;2023-01-05T13:35:07;102224.91;;;10.65;83.22
72061;BME280;59925;52.136;5.420;2023-01-05T13:38:01;102216.63;;;10.66;83.39
72061;BME280;59925;52.136;5.420;2023-01-05T13:40:53;102212.88;;;10.67;83.70
72061;BME280;59925;52.136;5.420;2023-01-05T13:49:27;102204.25;;;10.77;83.89
72061;BME280;59925;52.136;5.420;2023-01-05T13:54:52;102203.31;;;10.83;83.97
72061;BME280;59925;52.136;5.420;2023-01-05T13:57:36;102201.28;;;10.91;84.07
72061;BME280;59925;52.136;5.420;2023-01-05T14:00:27;102205.84;;;10.90;83.52
72061;BME280;59925;52.136;5.420;2023-01-05T14:05:30;102208.75;;;10.88;83.58
72061;BME280;59925;52.136;5.420;2023-01-05T14:08:01;102203.41;;;10.88;83.95
72061;BME280;59925;52.136;5.420;2023-01-05T14:10:30;102200.72;;;10.88;84.08
72061;BME280;59925;52.136;5.420;2023-01-05T14:12:57;102200.97;;;10.87;84.52
72061;BME280;59925;52.136;5.420;2023-01-05T14:15:28;102203.06;;;10.85;84.24
72061;BME280;59925;52.136;5.420;2023-01-05T14:17:57;102195.25;;;10.83;84.06
72061;BME280;59925;52.136;5.420;2023-01-05T14:20:46;102195.94;;;10.79;83.93
72061;BME280;59925;52.136;5.420;2023-01-05T14:25:58;102199.13;;;10.76;84.15
72061;BME280;59925;52.136;5.420;2023-01-05T14:33:45;102208.34;;;10.68;84.48
72061;BME280;59925;52.136;5.420;2023-01-05T14:39:20;102208.16;;;10.57;85.20
72061;BME280;59925;52.136;5.420;2023-01-05T14:42:07;102211.50;;;10.53;85.75
72061;BME280;59925;52.136;5.420;2023-01-05T14:45:02;102202.06;;;10.50;85.93
72061;BME280;59925;52.136;5.420;2023-01-05T14:47:43;102199.31;;;10.45;86.05
72061;BME280;59925;52.136;5.420;2023-01-05T14:50:31;102198.59;;;10.38;86.00
72061;BME280;59925;52.136;5.420;2023-01-05T14:55:37;102203.00;;;10.32;86.72
72061;BME280;59925;52.136;5.420;2023-01-05T15:01:12;102199.97;;;10.28;87.28
72061;BME280;59925;52.136;5.420;2023-01-05T15:06:25;102206.84;;;10.24;87.38